Terminal Aerodrome Forecast
Issued by NWS

Home | Current Version | Previous Version | Graphics & Text | Print | Product List | Glossary On
Versions: 1 2 3 4 5 6 7 8 9 10 11 12 13 14 15 16 17 18 19 20
000
FTUS41 KCLE 290540
TAFFDY
TAF
KFDY 290540Z 2906/3006 15004KT P6SM OVC250
     FM291200 14005KT P6SM OVC100
     FM291500 10012KT P6SM -SHRA OVC050
     FM291800 10010KT 5SM -SHRA BR OVC025
     FM292100 10010KT 4SM -SHRA BR OVC007
     FM300300 31005KT 2SM BR OVC001=

USA.gov is the U.S. government's official web portal to all federal, state and local government web resources and services.